Time;durP1;ratioP1;P1;durP2;ratioP2;P2;SDS_P1;SDS_P2;PMS_P1;PMS_P2;Temp;Humidity;BMP_temperature;BMP_pressure;BME280_temperature;BME280_humidity;BME280_pressure;Samples;Min_cycle;Max_cycle;Signal;HPM_P1;HPM_P2
2022/06/29 00:00:15;;;;;;;3.40;2.20;;;;;;;;;;5058169;28;20179;-67
2022/06/29 00:02:42;;;;;;;5.23;2.17;;;;;;;;;;5058591;28;20208;-66
2022/06/29 00:05:08;;;;;;;4.90;2.17;;;;;;;;;;5058287;28;20670;-68
2022/06/29 00:07:34;;;;;;;5.03;2.10;;;;;;;;;;5057987;28;20202;-66
2022/06/29 00:10:00;;;;;;;3.00;2.03;;;;;;;;;;5058039;28;20183;-69
2022/06/29 00:12:26;;;;;;;4.30;2.20;;;;;;;;;;5058121;28;20244;-67
2022/06/29 00:14:53;;;;;;;3.07;2.03;;;;;;;;;;5040040;28;20256;-68
2022/06/29 00:17:19;;;;;;;3.27;2.30;;;;;;;;;;5057852;28;20205;-68
2022/06/29 00:19:45;;;;;;;3.23;2.23;;;;;;;;;;5058744;28;20179;-66
2022/06/29 00:22:11;;;;;;;3.07;2.07;;;;;;;;;;5057981;28;20682;-66
2022/06/29 00:24:37;;;;;;;2.00;1.80;;;;;;;;;;5058056;28;20179;-67
2022/06/29 00:27:03;;;;;;;2.80;1.93;;;;;;;;;;5058303;28;20716;-65
2022/06/29 00:29:29;;;;;;;2.10;1.90;;;;;;;;;;5057646;28;20171;-68
2022/06/29 00:31:56;;;;;;;2.40;2.10;;;;;;;;;;5058525;28;20261;-67
2022/06/29 00:34:22;;;;;;;2.87;1.80;;;;;;;;;;5057633;28;20210;-66
2022/06/29 00:36:47;;;;;;;3.20;1.80;;;;;;;;;;5039582;28;20198;-67
2022/06/29 00:39:14;;;;;;;6.90;1.93;;;;;;;;;;5057970;28;20175;-67
2022/06/29 00:41:40;;;;;;;6.33;2.10;;;;;;;;;;5057798;28;20202;-67
2022/06/29 00:44:09;;;;;;;2.00;1.80;;;;;;;;;;5057414;28;20178;-66
2022/06/29 00:46:35;;;;;;;3.77;2.10;;;;;;;;;;5057697;28;20228;-66
2022/06/29 00:49:01;;;;;;;2.63;1.70;;;;;;;;;;5056723;28;20178;-65
2022/06/29 00:51:29;;;;;;;4.33;1.80;;;;;;;;;;5057215;28;20670;-69
2022/06/29 00:53:55;;;;;;;3.13;1.90;;;;;;;;;;5057291;28;20681;-67
2022/06/29 00:56:22;;;;;;;3.43;1.80;;;;;;;;;;5058458;28;20702;-66
2022/06/29 00:58:48;;;;;;;3.13;2.20;;;;;;;;;;5057541;28;20194;-65
2022/06/29 01:01:15;;;;;;;3.97;2.00;;;;;;;;;;5056471;28;20174;-65
2022/06/29 01:03:41;;;;;;;6.27;1.73;;;;;;;;;;5038349;28;20193;-66
2022/06/29 01:06:07;;;;;;;3.17;2.10;;;;;;;;;;5038625;28;20174;-68
2022/06/29 01:08:33;;;;;;;1.90;1.77;;;;;;;;;;5056237;28;20195;-65
2022/06/29 01:10:59;;;;;;;4.27;1.93;;;;;;;;;;5056299;28;20174;-65
2022/06/29 01:13:25;;;;;;;4.73;2.13;;;;;;;;;;5057028;28;20745;-65
2022/06/29 01:15:51;;;;;;;3.00;2.03;;;;;;;;;;5056604;28;20183;-66
2022/06/29 01:18:17;;;;;;;3.57;2.10;;;;;;;;;;5056819;28;20195;-66
2022/06/29 01:20:43;;;;;;;3.27;1.97;;;;;;;;;;5056305;28;20175;-68
2022/06/29 01:23:09;;;;;;;6.17;2.27;;;;;;;;;;5038617;28;20206;-67
2022/06/29 01:25:35;;;;;;;2.63;1.90;;;;;;;;;;5056543;28;20530;-65
2022/06/29 01:28:01;;;;;;;5.27;1.67;;;;;;;;;;5056901;28;20240;-66
2022/06/29 01:30:27;;;;;;;3.17;2.00;;;;;;;;;;5056215;28;20548;-65
2022/06/29 01:32:53;;;;;;;4.40;2.43;;;;;;;;;;5038302;28;20178;-66
2022/06/29 01:35:22;;;;;;;5.20;2.10;;;;;;;;;;5055739;28;20697;-66
2022/06/29 01:37:49;;;;;;;4.03;2.43;;;;;;;;;;5038021;28;20244;-67
2022/06/29 01:40:15;;;;;;;5.63;2.20;;;;;;;;;;5056071;28;20171;-66
2022/06/29 01:42:41;;;;;;;6.53;2.30;;;;;;;;;;5055720;28;20182;-65
2022/06/29 01:45:08;;;;;;;5.43;2.47;;;;;;;;;;5055926;28;20186;-67
2022/06/29 01:47:34;;;;;;;3.67;2.23;;;;;;;;;;5055677;28;20238;-65
2022/06/29 01:49:59;;;;;;;2.43;2.23;;;;;;;;;;5055491;28;20185;-65
2022/06/29 01:52:25;;;;;;;2.63;2.20;;;;;;;;;;5055885;28;20613;-65
2022/06/29 01:54:51;;;;;;;7.00;2.20;;;;;;;;;;5037730;28;20873;-65
2022/06/29 01:57:17;;;;;;;4.07;2.50;;;;;;;;;;5055156;28;20198;-66
2022/06/29 01:59:44;;;;;;;2.53;2.13;;;;;;;;;;5037653;28;20228;-66
2022/06/29 02:02:10;;;;;;;3.93;2.10;;;;;;;;;;5055740;28;20265;-66
2022/06/29 02:04:36;;;;;;;4.70;2.30;;;;;;;;;;5055420;28;20214;-65
2022/06/29 02:07:02;;;;;;;4.83;2.57;;;;;;;;;;5037322;28;20293;-65
2022/06/29 02:09:28;;;;;;;2.93;2.53;;;;;;;;;;5055102;28;20599;-66
2022/06/29 02:11:54;;;;;;;3.23;2.30;;;;;;;;;;5054806;28;20205;-65
2022/06/29 02:14:20;;;;;;;3.30;2.57;;;;;;;;;;5054979;28;20194;-65
2022/06/29 02:16:46;;;;;;;5.53;2.73;;;;;;;;;;5036420;28;20278;-67
2022/06/29 02:19:12;;;;;;;5.30;2.83;;;;;;;;;;5037007;28;20183;-64
2022/06/29 02:21:38;;;;;;;3.73;3.10;;;;;;;;;;5055183;28;20179;-65
2022/06/29 02:24:04;;;;;;;4.07;2.77;;;;;;;;;;5055149;28;20186;-65
2022/06/29 02:26:30;;;;;;;2.87;2.57;;;;;;;;;;5054772;28;20179;-65
2022/06/29 02:28:57;;;;;;;3.37;2.80;;;;;;;;;;5054937;28;20183;-65
2022/06/29 02:36:52;;;;;;;3.60;3.23;;;;;;;;;;5054545;28;20297;-66
2022/06/29 02:39:19;;;;;;;3.00;2.60;;;;;;;;;;5036336;28;20660;-65
2022/06/29 02:41:44;;;;;;;3.90;2.97;;;;;;;;;;5036651;28;20191;-65
2022/06/29 02:44:10;;;;;;;3.10;2.50;;;;;;;;;;5054446;28;20179;-66
2022/06/29 02:46:36;;;;;;;2.90;2.40;;;;;;;;;;5054207;28;20185;-67
2022/06/29 02:49:02;;;;;;;2.93;2.63;;;;;;;;;;5054389;28;20213;-65
2022/06/29 02:51:28;;;;;;;2.70;2.27;;;;;;;;;;5036264;28;20178;-65
2022/06/29 02:53:54;;;;;;;5.67;2.73;;;;;;;;;;5054186;28;20194;-66
2022/06/29 02:56:20;;;;;;;4.93;2.53;;;;;;;;;;5054222;28;20174;-66
2022/06/29 02:58:46;;;;;;;7.77;2.80;;;;;;;;;;5036143;28;20244;-65
2022/06/29 03:01:12;;;;;;;5.73;2.90;;;;;;;;;;5036093;28;20182;-66
2022/06/29 03:03:38;;;;;;;4.50;2.73;;;;;;;;;;5054144;28;20178;-66
2022/06/29 03:06:04;;;;;;;3.03;2.67;;;;;;;;;;5036501;28;20182;-68
2022/06/29 03:08:30;;;;;;;3.17;2.37;;;;;;;;;;5054187;28;20198;-66
2022/06/29 03:10:56;;;;;;;6.87;2.70;;;;;;;;;;5036264;28;20182;-65
2022/06/29 03:13:22;;;;;;;3.37;2.63;;;;;;;;;;5054245;28;20600;-65
2022/06/29 03:15:48;;;;;;;4.63;2.80;;;;;;;;;;5053954;28;20175;-65
2022/06/29 03:18:14;;;;;;;5.07;2.60;;;;;;;;;;5053753;28;20194;-66
2022/06/29 03:20:40;;;;;;;4.40;2.90;;;;;;;;;;5054513;28;20539;-67
2022/06/29 03:23:06;;;;;;;3.73;2.50;;;;;;;;;;5054120;28;20178;-66
2022/06/29 03:25:32;;;;;;;3.97;2.70;;;;;;;;;;5035762;28;20189;-66
2022/06/29 03:27:58;;;;;;;3.13;2.43;;;;;;;;;;5053211;28;20248;-67
2022/06/29 03:30:24;;;;;;;3.43;2.73;;;;;;;;;;5035959;28;20701;-65
2022/06/29 03:32:50;;;;;;;4.60;3.00;;;;;;;;;;5054622;28;20170;-65
2022/06/29 03:35:16;;;;;;;2.77;2.57;;;;;;;;;;5053831;28;20728;-66
2022/06/29 03:37:42;;;;;;;3.87;2.57;;;;;;;;;;5036210;28;20313;-68
2022/06/29 03:42:37;;;;;;;6.00;2.40;;;;;;;;;;5012044;28;20601;-67
2022/06/29 03:45:03;;;;;;;3.70;2.50;;;;;;;;;;4995755;28;20171;-67
2022/06/29 03:47:29;;;;;;;8.13;3.27;;;;;;;;;;4996056;28;20606;-67
2022/06/29 03:49:55;;;;;;;5.27;2.87;;;;;;;;;;5013302;28;20251;-67
2022/06/29 03:52:21;;;;;;;3.20;2.50;;;;;;;;;;4995723;28;20209;-67
2022/06/29 03:54:47;;;;;;;3.73;2.60;;;;;;;;;;5013684;28;20241;-68
2022/06/29 03:57:13;;;;;;;3.73;2.47;;;;;;;;;;4995645;28;20176;-67
2022/06/29 03:59:39;;;;;;;4.17;2.80;;;;;;;;;;5013827;28;20179;-70
2022/06/29 04:02:05;;;;;;;4.13;2.77;;;;;;;;;;5013396;28;20583;-69
2022/06/29 04:04:31;;;;;;;2.60;2.40;;;;;;;;;;5013643;28;20551;-68
2022/06/29 04:06:57;;;;;;;3.67;2.50;;;;;;;;;;5013148;28;20556;-67
2022/06/29 04:09:23;;;;;;;4.07;2.60;;;;;;;;;;5013799;28;20550;-67
2022/06/29 04:11:49;;;;;;;4.57;2.90;;;;;;;;;;4995457;28;20590;-67
2022/06/29 04:14:15;;;;;;;5.20;2.43;;;;;;;;;;4995578;28;20672;-67
2022/06/29 04:16:41;;;;;;;3.73;2.70;;;;;;;;;;5013418;28;20225;-67
2022/06/29 04:19:07;;;;;;;7.53;2.60;;;;;;;;;;5012987;28;20179;-69
2022/06/29 04:21:33;;;;;;;4.53;2.67;;;;;;;;;;4995345;28;20207;-67
2022/06/29 04:23:59;;;;;;;4.33;2.77;;;;;;;;;;4995464;28;20183;-67
2022/06/29 04:26:25;;;;;;;3.50;2.60;;;;;;;;;;5013304;28;20674;-68
2022/06/29 04:28:51;;;;;;;3.63;2.50;;;;;;;;;;5013140;28;20215;-67
2022/06/29 04:31:17;;;;;;;6.03;2.80;;;;;;;;;;5012875;28;20552;-67
2022/06/29 04:33:43;;;;;;;4.23;2.50;;;;;;;;;;5013076;28;20425;-67
2022/06/29 04:36:09;;;;;;;4.57;3.17;;;;;;;;;;4995198;28;20598;-67
2022/06/29 04:38:35;;;;;;;6.17;2.90;;;;;;;;;;4996043;28;20180;-67
2022/06/29 04:41:01;;;;;;;3.53;2.40;;;;;;;;;;4998655;28;20219;-67
2022/06/29 04:43:29;;;;;;;5.37;2.87;;;;;;;;;;5016590;28;20180;-67
2022/06/29 04:48:39;;;;;;;4.97;2.83;;;;;;;;;;5017292;28;20178;-67
2022/06/29 04:51:05;;;;;;;4.97;2.90;;;;;;;;;;4999292;28;20299;-67
2022/06/29 04:53:31;;;;;;;3.93;3.30;;;;;;;;;;5016642;28;20234;-67
2022/06/29 04:55:57;;;;;;;3.27;2.90;;;;;;;;;;5017124;28;20649;-67
2022/06/29 04:58:23;;;;;;;4.27;3.10;;;;;;;;;;5016198;28;20179;-68
2022/06/29 05:00:49;;;;;;;2.93;2.70;;;;;;;;;;4998388;28;20207;-68
2022/06/29 05:03:15;;;;;;;3.63;2.90;;;;;;;;;;5016024;28;20574;-68
2022/06/29 05:05:41;;;;;;;6.77;3.23;;;;;;;;;;4998584;28;20183;-68
2022/06/29 05:08:07;;;;;;;7.07;4.87;;;;;;;;;;5015986;28;20176;-68
2022/06/29 05:10:33;;;;;;;7.70;5.17;;;;;;;;;;4998238;28;20199;-68
2022/06/29 05:13:00;;;;;;;11.83;6.43;;;;;;;;;;4998179;28;20713;-68
2022/06/29 05:15:26;;;;;;;11.43;7.80;;;;;;;;;;5015796;28;20214;-68
2022/06/29 05:17:52;;;;;;;12.53;8.17;;;;;;;;;;5015402;28;20266;-67
2022/06/29 05:20:20;;;;;;;11.30;8.40;;;;;;;;;;4997749;28;20180;-68
2022/06/29 05:22:46;;;;;;;11.20;8.27;;;;;;;;;;4997909;28;20198;-68
2022/06/29 05:25:12;;;;;;;10.93;8.13;;;;;;;;;;5015580;28;20203;-68
2022/06/29 05:27:39;;;;;;;10.40;8.27;;;;;;;;;;4997661;28;20187;-68
2022/06/29 05:30:05;;;;;;;11.23;7.80;;;;;;;;;;5015337;28;20180;-68
2022/06/29 05:32:31;;;;;;;12.07;7.83;;;;;;;;;;5015125;28;20199;-67
2022/06/29 05:34:57;;;;;;;13.17;6.53;;;;;;;;;;5015129;28;20572;-67
2022/06/29 05:37:23;;;;;;;10.07;6.70;;;;;;;;;;4997466;28;20266;-67
2022/06/29 05:39:49;;;;;;;10.77;5.30;;;;;;;;;;4997450;28;20183;-67
2022/06/29 05:42:15;;;;;;;12.43;5.90;;;;;;;;;;5014838;28;20590;-67
2022/06/29 05:44:41;;;;;;;8.97;5.57;;;;;;;;;;4997480;28;20230;-67
2022/06/29 05:47:08;;;;;;;9.33;5.40;;;;;;;;;;4997643;28;20258;-67
2022/06/29 05:49:35;;;;;;;16.97;11.53;;;;;;;;;;5015343;28;20212;-67
2022/06/29 05:52:01;;;;;;;11.77;6.70;;;;;;;;;;4996976;28;20211;-67
2022/06/29 05:54:27;;;;;;;10.83;5.87;;;;;;;;;;5015350;28;20215;-67
2022/06/29 05:56:53;;;;;;;10.20;4.83;;;;;;;;;;5015039;28;20184;-67
2022/06/29 05:59:19;;;;;;;4.17;3.30;;;;;;;;;;4997278;28;20270;-67
2022/06/29 06:01:45;;;;;;;5.77;3.67;;;;;;;;;;4997189;28;20204;-67
2022/06/29 06:04:11;;;;;;;11.07;4.23;;;;;;;;;;5015190;28;20184;-66
2022/06/29 06:06:37;;;;;;;13.67;6.20;;;;;;;;;;5014892;28;20710;-67
2022/06/29 06:09:03;;;;;;;14.83;5.57;;;;;;;;;;4997216;28;20180;-67
2022/06/29 06:11:29;;;;;;;12.63;5.53;;;;;;;;;;5014590;28;20254;-69
2022/06/29 06:13:55;;;;;;;20.27;5.90;;;;;;;;;;5014518;28;20216;-67
2022/06/29 06:16:21;;;;;;;7.43;3.73;;;;;;;;;;4996999;28;20183;-67
2022/06/29 06:18:47;;;;;;;7.17;2.83;;;;;;;;;;5014911;28;20176;-67
2022/06/29 06:21:13;;;;;;;10.63;3.47;;;;;;;;;;5014720;28;20222;-67
2022/06/29 06:23:40;;;;;;;5.10;2.70;;;;;;;;;;4996898;28;20219;-67
2022/06/29 06:26:06;;;;;;;4.83;3.30;;;;;;;;;;5014354;28;20180;-67
2022/06/29 06:28:32;;;;;;;6.70;3.53;;;;;;;;;;4996868;28;20741;-67
2022/06/29 06:30:58;;;;;;;3.33;2.77;;;;;;;;;;4996979;28;20232;-67
2022/06/29 06:33:24;;;;;;;6.27;3.30;;;;;;;;;;5014965;28;20251;-67
2022/06/29 06:35:50;;;;;;;4.50;3.00;;;;;;;;;;5014797;28;20526;-67
2022/06/29 06:38:16;;;;;;;5.83;2.73;;;;;;;;;;5014283;28;20180;-67
2022/06/29 06:43:26;;;;;;;7.77;3.10;;;;;;;;;;5014516;28;20647;-67
2022/06/29 06:45:53;;;;;;;7.53;2.97;;;;;;;;;;5014845;28;20263;-67
2022/06/29 06:48:18;;;;;;;5.13;2.73;;;;;;;;;;5014082;28;20182;-67
2022/06/29 06:50:44;;;;;;;7.80;2.80;;;;;;;;;;4996468;28;20287;-67
2022/06/29 06:53:10;;;;;;;3.97;2.37;;;;;;;;;;5014165;28;20180;-67
2022/06/29 06:55:36;;;;;;;11.27;2.83;;;;;;;;;;5014112;28;20261;-67
2022/06/29 06:58:02;;;;;;;5.60;2.90;;;;;;;;;;4996516;28;20191;-67
2022/06/29 07:00:31;;;;;;;8.83;2.63;;;;;;;;;;5013866;28;20183;-67
2022/06/29 07:02:57;;;;;;;5.37;3.00;;;;;;;;;;4996150;28;20184;-66
2022/06/29 07:05:25;;;;;;;4.27;2.80;;;;;;;;;;4996287;28;20188;-67
2022/06/29 07:07:51;;;;;;;7.07;3.87;;;;;;;;;;4996403;28;20209;-67
2022/06/29 07:10:17;;;;;;;9.10;4.17;;;;;;;;;;4996116;28;20266;-67
2022/06/29 07:12:43;;;;;;;8.13;3.40;;;;;;;;;;5014106;28;20213;-66
2022/06/29 07:15:09;;;;;;;9.30;3.23;;;;;;;;;;5013955;28;20602;-68
2022/06/29 07:17:35;;;;;;;6.37;3.80;;;;;;;;;;4996147;28;20179;-68
2022/06/29 07:20:01;;;;;;;9.97;4.90;;;;;;;;;;4996160;28;20190;-68
2022/06/29 07:22:27;;;;;;;5.10;3.30;;;;;;;;;;4996018;28;20211;-67
2022/06/29 07:24:53;;;;;;;7.00;4.63;;;;;;;;;;5013591;28;20242;-68
2022/06/29 07:27:19;;;;;;;12.37;4.50;;;;;;;;;;5013511;28;20614;-68
2022/06/29 07:29:45;;;;;;;6.87;4.07;;;;;;;;;;5013481;28;20230;-66
2022/06/29 07:32:11;;;;;;;8.73;4.00;;;;;;;;;;4995844;28;20196;-68
2022/06/29 07:34:37;;;;;;;10.30;3.70;;;;;;;;;;4995795;28;20203;-68
2022/06/29 07:37:03;;;;;;;10.83;4.03;;;;;;;;;;5013814;28;20184;-68
2022/06/29 07:39:32;;;;;;;10.90;4.03;;;;;;;;;;4995910;28;20270;-68
2022/06/29 07:41:58;;;;;;;6.47;3.87;;;;;;;;;;5013247;28;20207;-68
2022/06/29 07:44:24;;;;;;;6.33;3.70;;;;;;;;;;5015252;28;20219;-69
2022/06/29 07:46:50;;;;;;;12.90;3.30;;;;;;;;;;4995917;28;20291;-68
2022/06/29 07:49:16;;;;;;;7.17;2.80;;;;;;;;;;4995776;28;20304;-67
2022/06/29 07:51:41;;;;;;;4.27;2.90;;;;;;;;;;4995688;28;20200;-69
2022/06/29 07:54:07;;;;;;;4.07;2.37;;;;;;;;;;5013235;28;20203;-68
2022/06/29 07:56:36;;;;;;;3.13;2.83;;;;;;;;;;5013279;28;20568;-68
2022/06/29 07:59:02;;;;;;;3.20;2.90;;;;;;;;;;5013819;28;20535;-68
2022/06/29 08:01:28;;;;;;;4.90;3.10;;;;;;;;;;5013276;28;20192;-68
2022/06/29 08:03:54;;;;;;;4.13;2.83;;;;;;;;;;4995612;28;20241;-68
2022/06/29 08:06:20;;;;;;;3.57;2.80;;;;;;;;;;5013183;28;20694;-68
2022/06/29 08:08:46;;;;;;;4.00;3.03;;;;;;;;;;5013097;28;20553;-68
2022/06/29 08:11:12;;;;;;;7.07;3.37;;;;;;;;;;5012964;28;20203;-68
2022/06/29 08:13:38;;;;;;;5.03;2.90;;;;;;;;;;5014106;28;20247;-68
2022/06/29 08:16:06;;;;;;;3.17;2.37;;;;;;;;;;5016863;28;20190;-69
2022/06/29 08:18:32;;;;;;;3.90;2.17;;;;;;;;;;5016810;28;20178;-68
2022/06/29 08:20:58;;;;;;;2.93;2.30;;;;;;;;;;5016886;28;20204;-67
2022/06/29 08:23:24;;;;;;;3.03;2.43;;;;;;;;;;5017115;28;20584;-68
2022/06/29 08:25:50;;;;;;;3.70;2.53;;;;;;;;;;5016857;28;20176;-68
2022/06/29 08:28:16;;;;;;;3.70;2.67;;;;;;;;;;5017075;28;20225;-68
2022/06/29 08:30:42;;;;;;;6.67;3.00;;;;;;;;;;5016556;28;20192;-68
2022/06/29 08:33:08;;;;;;;10.30;3.43;;;;;;;;;;5016639;28;20653;-68
2022/06/29 08:35:34;;;;;;;5.60;3.10;;;;;;;;;;5016730;28;20687;-68
2022/06/29 08:38:00;;;;;;;7.17;2.87;;;;;;;;;;5016525;28;20238;-68
2022/06/29 08:40:27;;;;;;;4.83;2.70;;;;;;;;;;4999482;28;20552;-68
2022/06/29 08:42:54;;;;;;;3.20;2.80;;;;;;;;;;5017956;28;20176;-68
2022/06/29 08:45:20;;;;;;;6.07;3.27;;;;;;;;;;4999135;28;20184;-68
2022/06/29 08:47:46;;;;;;;4.87;2.87;;;;;;;;;;4999125;28;20237;-68
2022/06/29 08:50:13;;;;;;;4.47;2.80;;;;;;;;;;5016473;28;20326;-68
2022/06/29 08:52:39;;;;;;;4.50;3.20;;;;;;;;;;4998769;28;20242;-68
2022/06/29 08:55:06;;;;;;;5.83;3.23;;;;;;;;;;5016441;28;20679;-68
2022/06/29 08:57:35;;;;;;;5.30;3.33;;;;;;;;;;5016224;28;20176;-68
2022/06/29 09:00:01;;;;;;;6.00;3.20;;;;;;;;;;5016621;28;20636;-67
2022/06/29 09:02:27;;;;;;;6.90;2.90;;;;;;;;;;4999052;28;20215;-68
2022/06/29 09:04:54;;;;;;;3.10;2.80;;;;;;;;;;5017017;28;20179;-68
2022/06/29 09:07:20;;;;;;;4.10;2.67;;;;;;;;;;4998593;28;20257;-68
2022/06/29 09:10:04;;;;;;;9.03;2.70;;;;;;;;;;4998533;28;20206;-68
2022/06/29 09:12:31;;;;;;;3.17;2.40;;;;;;;;;;5016027;28;20207;-68
2022/06/29 09:14:58;;;;;;;4.10;2.67;;;;;;;;;;5016561;28;20291;-68
2022/06/29 09:17:24;;;;;;;5.77;2.80;;;;;;;;;;5015798;28;20180;-68
2022/06/29 09:19:53;;;;;;;5.00;2.87;;;;;;;;;;4998139;28;20184;-68
2022/06/29 09:22:19;;;;;;;5.40;2.73;;;;;;;;;;4998202;28;20199;-68
2022/06/29 09:24:45;;;;;;;3.47;2.40;;;;;;;;;;4997259;28;20549;-68
2022/06/29 09:27:11;;;;;;;4.57;2.70;;;;;;;;;;4997670;28;20188;-68
2022/06/29 09:29:41;;;;;;;3.80;2.77;;;;;;;;;;5016163;28;20175;-68
2022/06/29 09:32:15;;;;;;;5.50;2.50;;;;;;;;;;5015441;28;20676;-68
2022/06/29 09:34:50;;;;;;;6.13;3.10;;;;;;;;;;4997918;28;20208;-68
2022/06/29 09:37:16;;;;;;;3.57;2.80;;;;;;;;;;5015525;28;20703;-68
2022/06/29 09:39:46;;;;;;;4.37;2.70;;;;;;;;;;5015557;28;20598;-68
2022/06/29 09:42:24;;;;;;;2.77;2.57;;;;;;;;;;5015393;28;20295;-68
2022/06/29 09:44:50;;;;;;;3.20;2.83;;;;;;;;;;4997992;28;20544;-67
2022/06/29 09:47:19;;;;;;;2.67;2.27;;;;;;;;;;5015610;28;20564;-68
2022/06/29 09:50:00;;;;;;;2.77;2.17;;;;;;;;;;4997723;28;20258;-68
2022/06/29 09:52:26;;;;;;;3.73;2.30;;;;;;;;;;5015179;28;20222;-68
2022/06/29 09:54:54;;;;;;;3.70;2.60;;;;;;;;;;5015370;28;20242;-68
2022/06/29 09:57:21;;;;;;;3.27;2.73;;;;;;;;;;4997580;28;20175;-68
2022/06/29 10:02:45;;;;;;;4.67;2.57;;;;;;;;;;5015383;28;20235;-68
2022/06/29 10:05:13;;;;;;;2.87;2.30;;;;;;;;;;4997432;28;20172;-68
2022/06/29 10:07:40;;;;;;;2.50;2.30;;;;;;;;;;4997310;28;20625;-68
2022/06/29 10:10:08;;;;;;;5.10;2.60;;;;;;;;;;5015165;28;20629;-69
2022/06/29 10:15:48;;;;;;;2.40;2.10;;;;;;;;;;5014948;28;20238;-68
2022/06/29 10:18:19;;;;;;;4.10;2.10;;;;;;;;;;4997388;28;20568;-68
2022/06/29 10:20:46;;;;;;;5.13;2.50;;;;;;;;;;4997389;28;20199;-68
2022/06/29 10:23:31;;;;;;;2.50;2.30;;;;;;;;;;5014617;28;20199;-68
2022/06/29 10:25:57;;;;;;;2.50;2.30;;;;;;;;;;5014462;28;20186;-68
2022/06/29 10:28:25;;;;;;;2.60;2.40;;;;;;;;;;5014952;28;20586;-67
2022/06/29 10:30:53;;;;;;;4.53;2.30;;;;;;;;;;5014467;28;20199;-68
2022/06/29 10:33:33;;;;;;;3.50;2.40;;;;;;;;;;5014317;28;20314;-67
2022/06/29 10:36:06;;;;;;;3.07;2.47;;;;;;;;;;5014371;28;20191;-67
2022/06/29 10:38:55;;;;;;;3.33;2.50;;;;;;;;;;4997641;28;20259;-67
2022/06/29 10:44:06;;;;;;;2.50;2.30;;;;;;;;;;5014958;28;20175;-68
2022/06/29 10:46:52;;;;;;;5.03;2.57;;;;;;;;;;5014249;28;20621;-67
2022/06/29 10:49:20;;;;;;;3.00;2.50;;;;;;;;;;5000484;28;20254;-67
2022/06/29 10:51:49;;;;;;;3.80;2.63;;;;;;;;;;5013871;28;20206;-67
2022/06/29 10:54:29;;;;;;;4.27;2.63;;;;;;;;;;4996160;28;20280;-67
2022/06/29 10:56:56;;;;;;;4.50;2.70;;;;;;;;;;4996477;28;20267;-68
2022/06/29 10:59:32;;;;;;;2.93;2.60;;;;;;;;;;5032214;23;20284;-67
2022/06/29 11:02:15;;;;;;;3.33;2.60;;;;;;;;;;5033891;28;20254;-67
2022/06/29 11:04:41;;;;;;;4.17;2.73;;;;;;;;;;5033880;28;20207;-67
2022/06/29 11:12:47;;;;;;;7.23;2.73;;;;;;;;;;5034139;28;20190;-68
2022/06/29 11:17:57;;;;;;;2.67;2.47;;;;;;;;;;5034144;28;20169;-67
2022/06/29 11:20:23;;;;;;;2.63;2.43;;;;;;;;;;5033729;28;20254;-67
2022/06/29 11:22:50;;;;;;;2.67;2.30;;;;;;;;;;5033963;28;20171;-68
2022/06/29 11:25:16;;;;;;;3.53;2.53;;;;;;;;;;5034123;28;20648;-68
2022/06/29 11:27:42;;;;;;;4.43;2.97;;;;;;;;;;5033531;28;20183;-68
2022/06/29 11:30:09;;;;;;;4.07;2.60;;;;;;;;;;5033472;28;20203;-68
2022/06/29 11:32:41;;;;;;;3.67;2.70;;;;;;;;;;5033391;28;20258;-69
2022/06/29 11:35:08;;;;;;;2.80;2.60;;;;;;;;;;5033472;28;20195;-68
2022/06/29 11:37:34;;;;;;;3.40;3.00;;;;;;;;;;5015883;28;20252;-68
2022/06/29 11:40:00;;;;;;;3.40;2.40;;;;;;;;;;5033345;28;20617;-68
2022/06/29 11:45:20;;;;;;;4.57;3.10;;;;;;;;;;5033819;28;20202;-68
2022/06/29 11:47:50;;;;;;;5.23;3.03;;;;;;;;;;5016295;28;20698;-67
2022/06/29 11:50:16;;;;;;;4.57;2.63;;;;;;;;;;5019255;28;20191;-67
2022/06/29 11:52:45;;;;;;;4.50;3.03;;;;;;;;;;5037309;28;20257;-67
2022/06/29 11:55:11;;;;;;;3.43;2.70;;;;;;;;;;5019625;28;20222;-67
2022/06/29 11:57:37;;;;;;;3.67;2.77;;;;;;;;;;5037610;28;20639;-67
2022/06/29 12:00:07;;;;;;;2.73;2.20;;;;;;;;;;5037357;28;20211;-67
2022/06/29 12:02:34;;;;;;;2.63;2.33;;;;;;;;;;5037493;28;20177;-67
2022/06/29 12:05:00;;;;;;;4.07;2.30;;;;;;;;;;5037734;28;20175;-67
2022/06/29 12:07:28;;;;;;;4.20;2.63;;;;;;;;;;5019418;28;20180;-69
2022/06/29 12:09:55;;;;;;;5.10;2.50;;;;;;;;;;5037124;28;20195;-68
2022/06/29 12:12:21;;;;;;;3.03;1.90;;;;;;;;;;5037120;28;20186;-67
2022/06/29 12:14:48;;;;;;;3.50;2.20;;;;;;;;;;5036991;28;20205;-68
2022/06/29 12:17:15;;;;;;;6.40;2.47;;;;;;;;;;5019119;28;20179;-67
2022/06/29 12:19:41;;;;;;;4.70;2.20;;;;;;;;;;5036905;28;20245;-67
2022/06/29 12:22:07;;;;;;;3.13;2.37;;;;;;;;;;5037181;28;20194;-68
2022/06/29 12:24:33;;;;;;;2.20;2.00;;;;;;;;;;5019279;28;20549;-67
2022/06/29 12:26:59;;;;;;;6.03;2.40;;;;;;;;;;5036950;28;20183;-67
2022/06/29 12:29:25;;;;;;;2.57;2.10;;;;;;;;;;5036883;28;20206;-67
2022/06/29 12:31:51;;;;;;;3.27;2.47;;;;;;;;;;5037231;28;20179;-67
2022/06/29 12:34:17;;;;;;;2.77;2.20;;;;;;;;;;5036643;28;20292;-68
2022/06/29 12:36:43;;;;;;;2.93;2.40;;;;;;;;;;5018847;28;20187;-67
2022/06/29 12:39:10;;;;;;;2.37;2.17;;;;;;;;;;5037121;28;20199;-67
2022/06/29 12:41:36;;;;;;;4.10;2.47;;;;;;;;;;5018832;28;20210;-67
2022/06/29 12:44:03;;;;;;;2.43;1.97;;;;;;;;;;5036486;28;20237;-67
2022/06/29 12:46:30;;;;;;;2.83;2.07;;;;;;;;;;5018643;28;20179;-67
2022/06/29 12:48:56;;;;;;;2.60;2.40;;;;;;;;;;5018563;28;20206;-67
2022/06/29 12:51:22;;;;;;;1.87;1.77;;;;;;;;;;5018624;28;20187;-67
2022/06/29 12:53:48;;;;;;;2.77;2.07;;;;;;;;;;5036381;28;20195;-67
2022/06/29 12:56:14;;;;;;;3.70;2.37;;;;;;;;;;5036351;28;20332;-67
2022/06/29 12:58:40;;;;;;;3.23;2.27;;;;;;;;;;5036313;28;20222;-67
2022/06/29 13:01:06;;;;;;;2.50;2.20;;;;;;;;;;5018168;28;20183;-67
2022/06/29 13:03:32;;;;;;;2.23;2.03;;;;;;;;;;5036649;28;20228;-67
2022/06/29 13:05:58;;;;;;;2.20;2.00;;;;;;;;;;5036221;28;20175;-67
2022/06/29 13:08:24;;;;;;;1.80;1.70;;;;;;;;;;5036355;28;20279;-68
2022/06/29 13:10:50;;;;;;;2.20;2.00;;;;;;;;;;5036492;28;20643;-68
2022/06/29 13:13:16;;;;;;;2.17;2.07;;;;;;;;;;5036637;28;20182;-68
2022/06/29 13:15:42;;;;;;;2.87;1.90;;;;;;;;;;5035981;28;20203;-67
2022/06/29 13:18:08;;;;;;;2.77;2.10;;;;;;;;;;5018160;28;20233;-68
2022/06/29 13:20:34;;;;;;;2.83;2.43;;;;;;;;;;5017988;28;20214;-67
2022/06/29 13:23:00;;;;;;;2.30;2.10;;;;;;;;;;5036401;28;20209;-68
2022/06/29 13:25:26;;;;;;;2.77;2.20;;;;;;;;;;5018206;28;20183;-68
2022/06/29 13:27:52;;;;;;;4.67;2.00;;;;;;;;;;5035741;28;20175;-68
2022/06/29 13:30:18;;;;;;;2.50;2.30;;;;;;;;;;5035798;28;20239;-68
2022/06/29 13:32:44;;;;;;;2.10;2.00;;;;;;;;;;5036011;28;20230;-68
2022/06/29 13:35:11;;;;;;;3.58;2.05;;;;;;;;;;5019568;28;20235;-67
2022/06/29 13:37:37;;;;;;;6.13;2.15;;;;;;;;;;5039656;28;20604;-68
2022/06/29 13:40:03;;;;;;;2.60;2.40;;;;;;;;;;5035488;28;20402;-68
2022/06/29 13:42:29;;;;;;;4.93;2.42;;;;;;;;;;5036794;28;20383;-68
2022/06/29 13:44:55;;;;;;;3.25;2.33;;;;;;;;;;5037170;28;20375;-68
2022/06/29 13:47:24;;;;;;;3.05;2.40;;;;;;;;;;5018323;28;20375;-68
2022/06/29 13:49:50;;;;;;;4.57;2.50;;;;;;;;;;5034892;28;20379;-68
2022/06/29 13:52:16;;;;;;;5.15;2.45;;;;;;;;;;5034293;28;20408;-68
2022/06/29 13:54:42;;;;;;;3.80;2.22;;;;;;;;;;5034499;28;20906;-68
2022/06/29 13:57:08;;;;;;;2.90;2.28;;;;;;;;;;5017320;28;20670;-68
2022/06/29 13:59:34;;;;;;;2.60;1.95;;;;;;;;;;5035165;28;20233;-68
2022/06/29 14:02:01;;;;;;;3.30;2.92;;;;;;;;;;5035223;28;20171;-68
2022/06/29 14:04:28;;;;;;;3.65;2.20;;;;;;;;;;5035575;28;20206;-67
2022/06/29 14:06:54;;;;;;;4.43;2.65;;;;;;;;;;5035140;28;20175;-67
2022/06/29 14:09:20;;;;;;;5.82;2.92;;;;;;;;;;5035388;28;20713;-66
2022/06/29 14:11:46;;;;;;;2.92;2.33;;;;;;;;;;5034394;28;20175;-67
2022/06/29 14:14:13;;;;;;;2.85;2.20;;;;;;;;;;5017235;28;20207;-67
2022/06/29 14:16:39;;;;;;;2.13;2.03;;;;;;;;;;5017415;28;20185;-66
2022/06/29 14:19:05;;;;;;;2.67;2.47;;;;;;;;;;5035215;28;20318;-66
2022/06/29 14:21:31;;;;;;;4.22;2.72;;;;;;;;;;5034913;28;20207;-66
2022/06/29 14:23:57;;;;;;;2.35;2.15;;;;;;;;;;5035196;28;20669;-65
2022/06/29 14:26:23;;;;;;;3.55;2.58;;;;;;;;;;5034676;28;20536;-66
2022/06/29 14:28:49;;;;;;;8.05;3.17;;;;;;;;;;5017153;28;20194;-67
2022/06/29 14:31:15;;;;;;;4.22;2.65;;;;;;;;;;5035050;28;20555;-67
2022/06/29 14:33:41;;;;;;;3.50;2.60;;;;;;;;;;5034472;28;20586;-67
2022/06/29 14:36:07;;;;;;;3.90;2.88;;;;;;;;;;5016972;28;20163;-67
2022/06/29 14:38:33;;;;;;;3.17;2.50;;;;;;;;;;5034585;28;20690;-67
2022/06/29 14:40:59;;;;;;;11.48;4.07;;;;;;;;;;5034600;28;20218;-67
2022/06/29 14:43:25;;;;;;;2.55;2.35;;;;;;;;;;5034248;28;20179;-66
2022/06/29 14:45:52;;;;;;;4.85;2.75;;;;;;;;;;5034968;28;20258;-66
2022/06/29 14:48:18;;;;;;;3.08;2.75;;;;;;;;;;5035167;28;20219;-66
2022/06/29 14:50:44;;;;;;;4.05;2.55;;;;;;;;;;5034534;28;20654;-66
2022/06/29 14:53:10;;;;;;;10.10;2.78;;;;;;;;;;5034146;28;20177;-66
2022/06/29 14:55:36;;;;;;;3.35;3.05;;;;;;;;;;5034450;28;20225;-67
2022/06/29 14:58:03;;;;;;;2.95;2.70;;;;;;;;;;5034018;28;20175;-66
2022/06/29 15:00:29;;;;;;;9.32;2.65;;;;;;;;;;5034545;28;20282;-66
2022/06/29 15:02:55;;;;;;;16.48;3.67;;;;;;;;;;5016738;28;20187;-67
2022/06/29 15:05:21;;;;;;;3.03;2.65;;;;;;;;;;5016210;28;20183;-66
2022/06/29 15:07:48;;;;;;;2.95;2.75;;;;;;;;;;5034170;28;20224;-68
2022/06/29 15:10:14;;;;;;;3.38;2.72;;;;;;;;;;5016405;28;20209;-68